sensor_id;sensor_type;location;lat;lon;timestamp;pressure;altitude;pressure_sealevel;temperature;humidity
79362;BME280;68830;47.566;19.012;2023-05-29T00:02:23;99925.34;;;13.86;63.17
79362;BME280;68830;47.566;19.012;2023-05-29T00:05:26;99926.16;;;13.95;62.70
79362;BME280;68830;47.566;19.012;2023-05-29T00:08:28;99927.47;;;13.99;62.43
79362;BME280;68830;47.566;19.012;2023-05-29T00:11:30;99913.16;;;13.92;62.67
79362;BME280;68830;47.566;19.012;2023-05-29T00:14:32;99942.13;;;13.95;63.71
79362;BME280;68830;47.566;19.012;2023-05-29T00:17:36;99944.16;;;13.76;65.60
79362;BME280;68830;47.566;19.012;2023-05-29T00:20:38;99947.50;;;13.62;66.16
79362;BME280;68830;47.566;19.012;2023-05-29T00:23:40;99963.81;;;13.59;66.72
79362;BME280;68830;47.566;19.012;2023-05-29T00:26:42;99954.84;;;13.52;67.27
79362;BME280;68830;47.566;19.012;2023-05-29T00:29:44;99955.19;;;13.49;67.65
79362;BME280;68830;47.566;19.012;2023-05-29T00:32:48;99959.81;;;13.55;66.94
79362;BME280;68830;47.566;19.012;2023-05-29T00:35:51;99953.34;;;13.66;66.72
79362;BME280;68830;47.566;19.012;2023-05-29T00:38:53;99944.53;;;13.65;65.30
79362;BME280;68830;47.566;19.012;2023-05-29T00:41:56;99945.16;;;13.75;65.38
79362;BME280;68830;47.566;19.012;2023-05-29T00:44:58;99934.69;;;13.82;65.27
79362;BME280;68830;47.566;19.012;2023-05-29T00:48:02;99939.78;;;13.92;64.46
79362;BME280;68830;47.566;19.012;2023-05-29T00:51:04;99938.25;;;14.14;62.47
79362;BME280;68830;47.566;19.012;2023-05-29T00:54:11;99928.13;;;14.09;62.91
79362;BME280;68830;47.566;19.012;2023-05-29T00:57:14;99935.41;;;14.15;63.90
79362;BME280;68830;47.566;19.012;2023-05-29T01:00:18;99914.63;;;14.11;62.58
79362;BME280;68830;47.566;19.012;2023-05-29T01:03:22;99925.50;;;14.32;63.72
79362;BME280;68830;47.566;19.012;2023-05-29T01:06:25;99926.84;;;14.44;62.44
79362;BME280;68830;47.566;19.012;2023-05-29T01:09:27;99922.28;;;14.53;62.84
79362;BME280;68830;47.566;19.012;2023-05-29T01:12:36;99924.16;;;14.44;63.08
79362;BME280;68830;47.566;19.012;2023-05-29T01:15:46;99920.53;;;14.29;64.16
79362;BME280;68830;47.566;19.012;2023-05-29T01:18:54;99916.88;;;14.22;64.43
79362;BME280;68830;47.566;19.012;2023-05-29T01:22:06;99917.59;;;14.16;65.54
79362;BME280;68830;47.566;19.012;2023-05-29T01:25:19;99909.63;;;14.07;66.17
79362;BME280;68830;47.566;19.012;2023-05-29T01:28:26;99916.88;;;14.22;66.62
79362;BME280;68830;47.566;19.012;2023-05-29T01:31:30;99902.63;;;14.15;65.03
79362;BME280;68830;47.566;19.012;2023-05-29T01:34:32;99916.94;;;14.14;65.01
79362;BME280;68830;47.566;19.012;2023-05-29T01:37:34;99904.34;;;13.99;65.60
79362;BME280;68830;47.566;19.012;2023-05-29T01:40:37;99911.19;;;13.86;65.09
79362;BME280;68830;47.566;19.012;2023-05-29T01:43:41;99904.56;;;13.82;65.52
79362;BME280;68830;47.566;19.012;2023-05-29T01:46:43;99915.69;;;13.85;65.02
79362;BME280;68830;47.566;19.012;2023-05-29T01:49:48;99910.03;;;13.88;65.98
79362;BME280;68830;47.566;19.012;2023-05-29T01:52:51;99907.34;;;13.96;65.78
79362;BME280;68830;47.566;19.012;2023-05-29T01:55:53;99905.53;;;13.97;65.88
79362;BME280;68830;47.566;19.012;2023-05-29T01:58:58;99892.88;;;13.91;65.92
79362;BME280;68830;47.566;19.012;2023-05-29T02:02:05;99898.72;;;13.86;65.94
79362;BME280;68830;47.566;19.012;2023-05-29T02:05:08;99901.44;;;13.70;65.88
79362;BME280;68830;47.566;19.012;2023-05-29T02:08:10;99906.13;;;13.52;66.92
79362;BME280;68830;47.566;19.012;2023-05-29T02:11:13;99896.50;;;13.34;66.95
79362;BME280;68830;47.566;19.012;2023-05-29T02:14:17;99888.66;;;13.16;67.33
79362;BME280;68830;47.566;19.012;2023-05-29T02:17:19;99905.09;;;13.12;67.76
79362;BME280;68830;47.566;19.012;2023-05-29T02:20:21;99888.66;;;13.08;67.72
79362;BME280;68830;47.566;19.012;2023-05-29T02:23:23;99881.50;;;13.09;68.56
79362;BME280;68830;47.566;19.012;2023-05-29T02:26:26;99895.31;;;13.12;69.84
79362;BME280;68830;47.566;19.012;2023-05-29T02:29:31;99890.47;;;13.16;70.18
79362;BME280;68830;47.566;19.012;2023-05-29T02:32:33;99876.03;;;13.10;70.61
79362;BME280;68830;47.566;19.012;2023-05-29T02:35:35;99901.66;;;13.36;69.64
79362;BME280;68830;47.566;19.012;2023-05-29T02:38:37;99882.22;;;13.35;69.93
79362;BME280;68830;47.566;19.012;2023-05-29T02:41:39;99881.53;;;13.33;68.79
79362;BME280;68830;47.566;19.012;2023-05-29T02:44:43;99892.19;;;13.33;68.78
79362;BME280;68830;47.566;19.012;2023-05-29T02:47:45;99887.84;;;13.32;69.57
79362;BME280;68830;47.566;19.012;2023-05-29T02:50:47;99881.19;;;13.28;69.22
79362;BME280;68830;47.566;19.012;2023-05-29T02:53:49;99892.00;;;13.27;69.75
79362;BME280;68830;47.566;19.012;2023-05-29T02:56:51;99887.69;;;13.26;69.55
79362;BME280;68830;47.566;19.012;2023-05-29T02:59:55;99843.31;;;13.02;68.69
79362;BME280;68830;47.566;19.012;2023-05-29T03:02:58;99881.34;;;13.10;69.51
79362;BME280;68830;47.566;19.012;2023-05-29T03:06:00;99882.69;;;13.06;69.58
79362;BME280;68830;47.566;19.012;2023-05-29T03:09:03;99881.00;;;13.13;69.97
79362;BME280;68830;47.566;19.012;2023-05-29T03:12:07;99870.41;;;13.05;70.66
79362;BME280;68830;47.566;19.012;2023-05-29T03:15:11;99889.38;;;13.19;70.71
79362;BME280;68830;47.566;19.012;2023-05-29T03:18:12;99889.03;;;13.22;69.77
79362;BME280;68830;47.566;19.012;2023-05-29T03:21:15;99886.38;;;13.22;70.79
79362;BME280;68830;47.566;19.012;2023-05-29T03:24:17;99861.75;;;13.11;70.98
79362;BME280;68830;47.566;19.012;2023-05-29T03:27:20;99880.84;;;13.31;71.17
79362;BME280;68830;47.566;19.012;2023-05-29T03:30:23;99884.34;;;13.40;71.81
79362;BME280;68830;47.566;19.012;2023-05-29T03:33:26;99885.50;;;13.54;71.69
79362;BME280;68830;47.566;19.012;2023-05-29T03:36:28;99874.19;;;13.52;71.73
79362;BME280;68830;47.566;19.012;2023-05-29T03:39:30;99883.16;;;13.67;72.17
79362;BME280;68830;47.566;19.012;2023-05-29T03:42:33;99895.41;;;13.76;72.02
79362;BME280;68830;47.566;19.012;2023-05-29T03:45:36;99898.91;;;13.76;69.54
79362;BME280;68830;47.566;19.012;2023-05-29T03:48:38;99909.44;;;13.54;69.25
79362;BME280;68830;47.566;19.012;2023-05-29T03:51:40;99915.41;;;13.48;69.58
79362;BME280;68830;47.566;19.012;2023-05-29T03:54:42;99916.94;;;13.50;70.39
79362;BME280;68830;47.566;19.012;2023-05-29T03:57:46;99904.28;;;13.44;70.32
79362;BME280;68830;47.566;19.012;2023-05-29T04:00:49;99911.09;;;13.46;69.14
79362;BME280;68830;47.566;19.012;2023-05-29T04:03:51;99917.59;;;13.52;70.17
79362;BME280;68830;47.566;19.012;2023-05-29T04:06:53;99895.81;;;13.49;69.64
79362;BME280;68830;47.566;19.012;2023-05-29T04:09:56;99905.91;;;13.69;70.36
79362;BME280;68830;47.566;19.012;2023-05-29T04:12:58;99919.66;;;13.89;70.66
79362;BME280;68830;47.566;19.012;2023-05-29T04:16:01;99920.13;;;14.01;70.79
79362;BME280;68830;47.566;19.012;2023-05-29T04:19:03;99914.28;;;14.05;70.00
79362;BME280;68830;47.566;19.012;2023-05-29T04:22:05;99913.28;;;14.15;70.28
79362;BME280;68830;47.566;19.012;2023-05-29T04:25:08;99912.44;;;14.14;70.15
79362;BME280;68830;47.566;19.012;2023-05-29T04:28:10;99911.19;;;14.33;70.45
79362;BME280;68830;47.566;19.012;2023-05-29T04:31:13;99917.28;;;14.58;70.48
79362;BME280;68830;47.566;19.012;2023-05-29T04:34:17;99920.84;;;14.73;69.76
79362;BME280;68830;47.566;19.012;2023-05-29T04:37:19;99917.28;;;14.81;69.08
79362;BME280;68830;47.566;19.012;2023-05-29T04:40:31;99923.88;;;14.93;69.36
79362;BME280;68830;47.566;19.012;2023-05-29T04:43:38;99918.50;;;15.01;70.66
79362;BME280;68830;47.566;19.012;2023-05-29T04:46:43;99922.19;;;15.15;69.76
79362;BME280;68830;47.566;19.012;2023-05-29T04:49:46;99918.84;;;15.21;68.75
79362;BME280;68830;47.566;19.012;2023-05-29T04:52:51;99917.81;;;15.22;68.01
79362;BME280;68830;47.566;19.012;2023-05-29T04:55:54;99922.97;;;15.23;67.27
79362;BME280;68830;47.566;19.012;2023-05-29T04:58:56;99923.03;;;15.15;67.27
79362;BME280;68830;47.566;19.012;2023-05-29T05:02:01;99935.50;;;15.23;67.72
79362;BME280;68830;47.566;19.012;2023-05-29T05:05:04;99931.47;;;15.42;68.17
79362;BME280;68830;47.566;19.012;2023-05-29T05:08:06;99928.16;;;15.63;68.09
79362;BME280;68830;47.566;19.012;2023-05-29T05:11:08;99913.72;;;15.72;67.98
79362;BME280;68830;47.566;19.012;2023-05-29T05:14:10;99932.06;;;16.04;66.51
79362;BME280;68830;47.566;19.012;2023-05-29T05:17:13;99936.00;;;16.23;66.50
79362;BME280;68830;47.566;19.012;2023-05-29T05:20:15;99927.50;;;16.49;66.36
79362;BME280;68830;47.566;19.012;2023-05-29T05:23:18;99931.34;;;16.76;66.90
79362;BME280;68830;47.566;19.012;2023-05-29T05:26:20;99934.50;;;17.01;66.37
79362;BME280;68830;47.566;19.012;2023-05-29T05:29:22;99929.75;;;17.24;66.20
79362;BME280;68830;47.566;19.012;2023-05-29T05:32:28;99940.94;;;17.56;64.46
79362;BME280;68830;47.566;19.012;2023-05-29T05:35:30;99941.94;;;17.76;65.54
79362;BME280;68830;47.566;19.012;2023-05-29T05:38:32;99941.94;;;17.76;63.73
79362;BME280;68830;47.566;19.012;2023-05-29T05:41:35;99909.38;;;17.73;65.02
79362;BME280;68830;47.566;19.012;2023-05-29T05:44:37;99929.34;;;18.05;65.31
79362;BME280;68830;47.566;19.012;2023-05-29T05:47:40;99935.03;;;18.23;64.22
79362;BME280;68830;47.566;19.012;2023-05-29T05:50:42;99937.63;;;18.51;64.38
79362;BME280;68830;47.566;19.012;2023-05-29T05:53:44;99929.72;;;18.84;59.18
79362;BME280;68830;47.566;19.012;2023-05-29T05:56:47;99902.69;;;18.99;57.21
79362;BME280;68830;47.566;19.012;2023-05-29T05:59:49;99937.84;;;19.37;57.74
79362;BME280;68830;47.566;19.012;2023-05-29T06:02:52;99876.66;;;18.73;61.06
79362;BME280;68830;47.566;19.012;2023-05-29T06:05:54;99868.59;;;18.79;61.71
79362;BME280;68830;47.566;19.012;2023-05-29T06:08:56;99877.53;;;19.00;59.21
79362;BME280;68830;47.566;19.012;2023-05-29T06:12:00;99880.22;;;19.06;58.65
79362;BME280;68830;47.566;19.012;2023-05-29T06:15:02;99891.53;;;18.89;57.83
79362;BME280;68830;47.566;19.012;2023-05-29T06:18:07;99882.91;;;19.20;57.95
79362;BME280;68830;47.566;19.012;2023-05-29T06:21:09;99895.50;;;19.52;57.10
79362;BME280;68830;47.566;19.012;2023-05-29T06:24:11;99875.88;;;19.65;57.13
79362;BME280;68830;47.566;19.012;2023-05-29T06:27:14;99884.13;;;19.50;53.27
79362;BME280;68830;47.566;19.012;2023-05-29T06:30:16;99900.06;;;19.19;54.38
79362;BME280;68830;47.566;19.012;2023-05-29T06:33:20;99966.00;;;19.67;55.63
79362;BME280;68830;47.566;19.012;2023-05-29T06:36:23;99957.47;;;20.04;53.49
79362;BME280;68830;47.566;19.012;2023-05-29T06:39:25;99951.84;;;20.25;52.42
79362;BME280;68830;47.566;19.012;2023-05-29T06:42:27;99971.25;;;20.47;52.10
79362;BME280;68830;47.566;19.012;2023-05-29T06:45:28;99963.97;;;20.54;51.42
79362;BME280;68830;47.566;19.012;2023-05-29T06:48:33;99965.38;;;20.63;50.85
79362;BME280;68830;47.566;19.012;2023-05-29T06:51:36;99961.03;;;20.69;52.48
79362;BME280;68830;47.566;19.012;2023-05-29T06:54:39;99964.25;;;20.84;53.08
79362;BME280;68830;47.566;19.012;2023-05-29T06:57:41;99965.41;;;21.01;52.11
79362;BME280;68830;47.566;19.012;2023-05-29T07:00:42;99964.31;;;21.09;48.30
79362;BME280;68830;47.566;19.012;2023-05-29T07:03:51;99951.03;;;20.76;50.60
79362;BME280;68830;47.566;19.012;2023-05-29T07:06:53;99936.31;;;20.78;52.65
79362;BME280;68830;47.566;19.012;2023-05-29T07:09:56;99941.06;;;20.83;52.52
79362;BME280;68830;47.566;19.012;2023-05-29T07:12:58;99938.72;;;20.55;50.26
79362;BME280;68830;47.566;19.012;2023-05-29T07:15:59;99943.41;;;20.73;50.81
79362;BME280;68830;47.566;19.012;2023-05-29T07:19:18;99951.44;;;21.11;47.50
79362;BME280;68830;47.566;19.012;2023-05-29T07:22:22;99945.84;;;21.94;45.70
79362;BME280;68830;47.566;19.012;2023-05-29T07:25:25;99953.75;;;21.89;44.42
79362;BME280;68830;47.566;19.012;2023-05-29T07:28:27;99953.97;;;21.06;47.74
79362;BME280;68830;47.566;19.012;2023-05-29T07:31:30;99954.44;;;21.34;47.53
79362;BME280;68830;47.566;19.012;2023-05-29T07:34:36;99959.16;;;21.39;47.92
79362;BME280;68830;47.566;19.012;2023-05-29T07:37:39;99964.41;;;21.27;50.05
79362;BME280;68830;47.566;19.012;2023-05-29T07:40:40;99958.22;;;21.27;50.43
79362;BME280;68830;47.566;19.012;2023-05-29T07:43:44;99978.03;;;21.39;50.95
79362;BME280;68830;47.566;19.012;2023-05-29T07:46:47;99951.16;;;21.32;50.31
79362;BME280;68830;47.566;19.012;2023-05-29T07:49:51;99985.63;;;21.48;50.00
79362;BME280;68830;47.566;19.012;2023-05-29T07:52:53;99977.94;;;21.52;51.88
79362;BME280;68830;47.566;19.012;2023-05-29T07:55:58;99993.22;;;21.58;51.77
79362;BME280;68830;47.566;19.012;2023-05-29T07:58:59;99973.66;;;21.44;52.30
79362;BME280;68830;47.566;19.012;2023-05-29T08:02:01;99988.97;;;21.44;52.14
79362;BME280;68830;47.566;19.012;2023-05-29T08:05:07;99992.69;;;21.43;51.75
79362;BME280;68830;47.566;19.012;2023-05-29T08:08:10;99989.31;;;21.54;51.25
79362;BME280;68830;47.566;19.012;2023-05-29T08:11:14;99984.84;;;21.41;50.49
79362;BME280;68830;47.566;19.012;2023-05-29T08:14:16;99991.13;;;22.10;51.02
79362;BME280;68830;47.566;19.012;2023-05-29T08:17:18;99974.91;;;21.92;48.68
79362;BME280;68830;47.566;19.012;2023-05-29T08:20:22;99984.69;;;22.11;51.19
79362;BME280;68830;47.566;19.012;2023-05-29T08:23:24;99975.50;;;22.55;50.25
79362;BME280;68830;47.566;19.012;2023-05-29T08:26:26;99974.41;;;22.20;48.43
79362;BME280;68830;47.566;19.012;2023-05-29T08:29:28;99974.78;;;22.05;49.29
79362;BME280;68830;47.566;19.012;2023-05-29T08:32:30;99970.81;;;22.62;48.80
79362;BME280;68830;47.566;19.012;2023-05-29T08:35:34;99958.09;;;22.70;47.72
79362;BME280;68830;47.566;19.012;2023-05-29T08:38:36;99964.31;;;22.15;48.08
79362;BME280;68830;47.566;19.012;2023-05-29T08:41:46;99967.97;;;22.21;50.25
79362;BME280;68830;47.566;19.012;2023-05-29T08:44:55;99956.75;;;22.42;48.65
79362;BME280;68830;47.566;19.012;2023-05-29T08:48:00;99965.03;;;22.77;48.77
79362;BME280;68830;47.566;19.012;2023-05-29T08:51:05;99947.72;;;22.66;47.49
79362;BME280;68830;47.566;19.012;2023-05-29T08:54:09;99957.88;;;23.31;48.75
79362;BME280;68830;47.566;19.012;2023-05-29T08:57:12;99951.75;;;23.36;48.76
79362;BME280;68830;47.566;19.012;2023-05-29T09:00:15;99941.59;;;23.61;46.97
79362;BME280;68830;47.566;19.012;2023-05-29T09:03:18;99947.06;;;23.54;46.96
79362;BME280;68830;47.566;19.012;2023-05-29T09:06:24;99958.72;;;23.55;45.82
79362;BME280;68830;47.566;19.012;2023-05-29T09:09:27;99962.25;;;23.55;45.78
79362;BME280;68830;47.566;19.012;2023-05-29T09:12:30;99958.66;;;23.20;47.39
79362;BME280;68830;47.566;19.012;2023-05-29T09:15:33;99948.19;;;23.89;47.44
79362;BME280;68830;47.566;19.012;2023-05-29T09:18:35;99957.69;;;24.03;47.23
79362;BME280;68830;47.566;19.012;2023-05-29T09:21:38;99951.94;;;24.11;45.22
79362;BME280;68830;47.566;19.012;2023-05-29T09:24:43;99955.94;;;23.73;45.75
79362;BME280;68830;47.566;19.012;2023-05-29T09:27:47;99958.31;;;24.05;45.54
79362;BME280;68830;47.566;19.012;2023-05-29T09:30:49;99933.88;;;23.23;46.99
79362;BME280;68830;47.566;19.012;2023-05-29T09:33:51;99956.69;;;22.97;45.35
79362;BME280;68830;47.566;19.012;2023-05-29T09:37:01;99938.81;;;23.38;46.16
79362;BME280;68830;47.566;19.012;2023-05-29T09:40:11;99950.59;;;24.49;46.28
79362;BME280;68830;47.566;19.012;2023-05-29T09:43:14;99946.47;;;24.86;45.85
79362;BME280;68830;47.566;19.012;2023-05-29T09:46:18;99951.44;;;24.78;44.83
79362;BME280;68830;47.566;19.012;2023-05-29T09:49:22;99951.72;;;24.36;48.26
79362;BME280;68830;47.566;19.012;2023-05-29T09:52:26;99951.81;;;24.29;44.82
79362;BME280;68830;47.566;19.012;2023-05-29T09:55:33;99929.44;;;24.34;43.25
79362;BME280;68830;47.566;19.012;2023-05-29T09:58:37;99937.31;;;23.42;45.65
79362;BME280;68830;47.566;19.012;2023-05-29T10:01:43;99939.56;;;23.56;45.90
79362;BME280;68830;47.566;19.012;2023-05-29T10:04:48;99952.56;;;23.90;46.35
79362;BME280;68830;47.566;19.012;2023-05-29T10:07:53;99936.03;;;24.14;46.09
79362;BME280;68830;47.566;19.012;2023-05-29T10:10:59;99950.31;;;24.62;45.38
79362;BME280;68830;47.566;19.012;2023-05-29T10:14:04;99949.38;;;24.68;44.43
79362;BME280;68830;47.566;19.012;2023-05-29T10:17:09;99963.44;;;24.53;44.89
79362;BME280;68830;47.566;19.012;2023-05-29T10:20:14;99958.31;;;24.68;45.36
79362;BME280;68830;47.566;19.012;2023-05-29T10:23:21;99960.72;;;24.53;45.28
79362;BME280;68830;47.566;19.012;2023-05-29T10:26:27;99959.00;;;23.89;46.03
79362;BME280;68830;47.566;19.012;2023-05-29T10:29:36;99957.63;;;23.74;46.94
79362;BME280;68830;47.566;19.012;2023-05-29T10:32:46;99958.59;;;23.50;48.15
79362;BME280;68830;47.566;19.012;2023-05-29T10:36:05;99954.34;;;23.31;49.16
79362;BME280;68830;47.566;19.012;2023-05-29T10:39:10;99960.44;;;23.38;50.48
79362;BME280;68830;47.566;19.012;2023-05-29T10:42:40;99954.38;;;23.54;48.78
79362;BME280;68830;47.566;19.012;2023-05-29T10:45:48;99941.78;;;23.48;47.95
79362;BME280;68830;47.566;19.012;2023-05-29T10:48:53;99944.03;;;23.09;48.42
79362;BME280;68830;47.566;19.012;2023-05-29T10:51:57;99939.28;;;23.23;49.42
79362;BME280;68830;47.566;19.012;2023-05-29T10:55:03;99937.81;;;23.09;48.98
79362;BME280;68830;47.566;19.012;2023-05-29T10:58:05;99942.97;;;22.99;48.18
79362;BME280;68830;47.566;19.012;2023-05-29T11:01:08;99945.75;;;22.92;48.67
79362;BME280;68830;47.566;19.012;2023-05-29T11:04:28;99941.34;;;23.09;50.98
79362;BME280;68830;47.566;19.012;2023-05-29T11:07:32;99950.91;;;23.23;52.06
79362;BME280;68830;47.566;19.012;2023-05-29T11:10:59;99953.28;;;23.32;51.79
79362;BME280;68830;47.566;19.012;2023-05-29T11:14:03;99921.31;;;23.29;50.74
79362;BME280;68830;47.566;19.012;2023-05-29T11:17:06;99940.91;;;23.24;50.11
79362;BME280;68830;47.566;19.012;2023-05-29T11:20:17;99950.47;;;23.38;51.34
79362;BME280;68830;47.566;19.012;2023-05-29T11:23:22;99945.19;;;23.55;50.49
79362;BME280;68830;47.566;19.012;2023-05-29T11:26:29;99941.09;;;23.52;49.86
79362;BME280;68830;47.566;19.012;2023-05-29T11:29:32;99940.81;;;23.31;50.15
79362;BME280;68830;47.566;19.012;2023-05-29T11:32:36;99926.91;;;23.69;51.96
79362;BME280;68830;47.566;19.012;2023-05-29T11:35:39;99926.09;;;23.80;50.26
79362;BME280;68830;47.566;19.012;2023-05-29T11:38:41;99927.72;;;23.81;50.52
79362;BME280;68830;47.566;19.012;2023-05-29T11:41:44;99931.63;;;23.62;49.63
79362;BME280;68830;47.566;19.012;2023-05-29T11:44:47;99928.91;;;23.85;49.62
79362;BME280;68830;47.566;19.012;2023-05-29T11:47:53;99930.53;;;24.09;50.86
79362;BME280;68830;47.566;19.012;2023-05-29T11:50:56;99911.81;;;24.31;48.88
79362;BME280;68830;47.566;19.012;2023-05-29T11:53:58;99916.06;;;24.67;49.57
79362;BME280;68830;47.566;19.012;2023-05-29T11:57:02;99896.41;;;24.89;48.67
79362;BME280;68830;47.566;19.012;2023-05-29T12:00:07;99895.72;;;25.10;47.28
79362;BME280;68830;47.566;19.012;2023-05-29T12:03:12;99895.03;;;24.46;47.25
79362;BME280;68830;47.566;19.012;2023-05-29T12:06:15;99893.59;;;24.84;48.06
79362;BME280;68830;47.566;19.012;2023-05-29T12:09:24;99844.53;;;24.52;47.79
79362;BME280;68830;47.566;19.012;2023-05-29T12:12:28;99857.97;;;24.75;46.58
79362;BME280;68830;47.566;19.012;2023-05-29T12:15:31;99883.47;;;25.08;46.14
79362;BME280;68830;47.566;19.012;2023-05-29T12:18:33;99882.25;;;25.32;45.54
79362;BME280;68830;47.566;19.012;2023-05-29T12:21:35;99880.69;;;25.36;44.04
79362;BME280;68830;47.566;19.012;2023-05-29T12:24:39;99860.56;;;25.49;44.56
79362;BME280;68830;47.566;19.012;2023-05-29T12:27:47;99876.28;;;25.30;42.66
79362;BME280;68830;47.566;19.012;2023-05-29T12:30:49;99878.63;;;25.60;44.42
79362;BME280;68830;47.566;19.012;2023-05-29T12:33:52;99867.47;;;25.23;42.14
79362;BME280;68830;47.566;19.012;2023-05-29T12:36:54;99876.56;;;25.67;41.51
79362;BME280;68830;47.566;19.012;2023-05-29T12:40:14;99869.84;;;25.53;40.40
79362;BME280;68830;47.566;19.012;2023-05-29T12:43:18;99878.69;;;25.65;39.74
79362;BME280;68830;47.566;19.012;2023-05-29T12:46:20;99862.25;;;25.55;38.87
79362;BME280;68830;47.566;19.012;2023-05-29T12:49:22;99854.72;;;25.07;40.94
79362;BME280;68830;47.566;19.012;2023-05-29T12:52:27;99877.09;;;25.47;39.38
79362;BME280;68830;47.566;19.012;2023-05-29T12:55:30;99862.59;;;26.36;40.35
79362;BME280;68830;47.566;19.012;2023-05-29T12:58:36;99864.38;;;25.86;39.24
79362;BME280;68830;47.566;19.012;2023-05-29T13:01:38;99860.41;;;25.05;40.32
79362;BME280;68830;47.566;19.012;2023-05-29T13:04:41;99864.66;;;25.51;40.91
79362;BME280;68830;47.566;19.012;2023-05-29T13:07:43;99863.28;;;25.49;40.47
79362;BME280;68830;47.566;19.012;2023-05-29T13:10:45;99859.91;;;25.97;38.53
79362;BME280;68830;47.566;19.012;2023-05-29T13:13:48;99862.63;;;25.97;39.42
79362;BME280;68830;47.566;19.012;2023-05-29T13:16:51;99846.66;;;26.23;38.88
79362;BME280;68830;47.566;19.012;2023-05-29T13:19:53;99845.06;;;26.27;38.32
79362;BME280;68830;47.566;19.012;2023-05-29T13:22:55;99841.31;;;26.82;39.13
79362;BME280;68830;47.566;19.012;2023-05-29T13:25:57;99839.84;;;26.69;38.72
79362;BME280;68830;47.566;19.012;2023-05-29T13:29:00;99836.56;;;26.67;37.30
79362;BME280;68830;47.566;19.012;2023-05-29T13:32:02;99842.75;;;26.89;38.75
79362;BME280;68830;47.566;19.012;2023-05-29T13:35:06;99816.06;;;26.54;37.32
79362;BME280;68830;47.566;19.012;2023-05-29T13:38:08;99833.53;;;26.36;37.25
79362;BME280;68830;47.566;19.012;2023-05-29T13:41:10;99838.34;;;26.34;36.62
79362;BME280;68830;47.566;19.012;2023-05-29T13:44:13;99834.78;;;26.07;37.25
79362;BME280;68830;47.566;19.012;2023-05-29T13:47:16;99835.41;;;25.92;37.92
79362;BME280;68830;47.566;19.012;2023-05-29T13:50:18;99832.75;;;25.97;39.08
79362;BME280;68830;47.566;19.012;2023-05-29T13:53:20;99832.75;;;25.97;38.90
79362;BME280;68830;47.566;19.012;2023-05-29T13:56:21;99824.34;;;26.96;36.75
79362;BME280;68830;47.566;19.012;2023-05-29T13:59:25;99825.75;;;26.23;37.94
79362;BME280;68830;47.566;19.012;2023-05-29T14:02:28;99825.91;;;25.89;39.95
79362;BME280;68830;47.566;19.012;2023-05-29T14:05:30;99829.50;;;25.73;41.37
79362;BME280;68830;47.566;19.012;2023-05-29T14:08:33;99833.91;;;25.62;39.01
79362;BME280;68830;47.566;19.012;2023-05-29T14:11:35;99829.44;;;25.35;41.04
79362;BME280;68830;47.566;19.012;2023-05-29T14:14:40;99817.50;;;25.36;39.52
79362;BME280;68830;47.566;19.012;2023-05-29T14:17:42;99812.44;;;25.06;41.03
79362;BME280;68830;47.566;19.012;2023-05-29T14:20:45;99809.66;;;25.00;41.68
79362;BME280;68830;47.566;19.012;2023-05-29T14:23:50;99820.25;;;25.19;43.18
79362;BME280;68830;47.566;19.012;2023-05-29T14:26:51;99834.78;;;25.13;43.60
79362;BME280;68830;47.566;19.012;2023-05-29T14:29:55;99831.69;;;24.76;41.33
79362;BME280;68830;47.566;19.012;2023-05-29T14:32:57;99835.88;;;24.38;48.80
79362;BME280;68830;47.566;19.012;2023-05-29T14:36:01;99837.13;;;24.07;49.49
79362;BME280;68830;47.566;19.012;2023-05-29T14:39:03;99819.06;;;24.24;46.86
79362;BME280;68830;47.566;19.012;2023-05-29T14:42:07;99834.06;;;24.03;46.17
79362;BME280;68830;47.566;19.012;2023-05-29T14:45:10;99809.22;;;23.66;48.04
79362;BME280;68830;47.566;19.012;2023-05-29T14:48:13;99836.97;;;24.25;43.45
79362;BME280;68830;47.566;19.012;2023-05-29T14:51:15;99839.41;;;24.27;43.26
79362;BME280;68830;47.566;19.012;2023-05-29T14:54:18;99842.84;;;24.22;46.79
79362;BME280;68830;47.566;19.012;2023-05-29T14:57:20;99850.16;;;24.22;48.30
79362;BME280;68830;47.566;19.012;2023-05-29T15:00:23;99852.06;;;24.09;47.96
79362;BME280;68830;47.566;19.012;2023-05-29T15:03:25;99816.13;;;23.74;46.35
79362;BME280;68830;47.566;19.012;2023-05-29T15:06:28;99844.97;;;23.68;48.94
79362;BME280;68830;47.566;19.012;2023-05-29T15:09:31;99843.91;;;23.69;48.04
79362;BME280;68830;47.566;19.012;2023-05-29T15:12:34;99829.06;;;23.83;48.20
79362;BME280;68830;47.566;19.012;2023-05-29T15:15:37;99830.59;;;23.91;50.34
79362;BME280;68830;47.566;19.012;2023-05-29T15:18:49;99819.31;;;23.71;50.38
79362;BME280;68830;47.566;19.012;2023-05-29T15:21:51;99817.44;;;23.71;50.25
79362;BME280;68830;47.566;19.012;2023-05-29T15:24:53;99819.69;;;23.51;49.64
79362;BME280;68830;47.566;19.012;2023-05-29T15:27:55;99825.09;;;23.51;51.06
79362;BME280;68830;47.566;19.012;2023-05-29T15:30:59;99813.81;;;22.77;54.32
79362;BME280;68830;47.566;19.012;2023-05-29T15:34:02;99818.38;;;22.65;54.82
79362;BME280;68830;47.566;19.012;2023-05-29T15:37:04;99821.34;;;22.45;56.32
79362;BME280;68830;47.566;19.012;2023-05-29T15:40:07;99820.34;;;22.58;55.46
79362;BME280;68830;47.566;19.012;2023-05-29T15:43:10;99815.25;;;22.38;56.99
79362;BME280;68830;47.566;19.012;2023-05-29T15:46:15;99821.13;;;22.47;58.06
79362;BME280;68830;47.566;19.012;2023-05-29T15:49:17;99823.38;;;22.50;59.60
79362;BME280;68830;47.566;19.012;2023-05-29T15:52:19;99812.25;;;22.28;56.65
79362;BME280;68830;47.566;19.012;2023-05-29T15:55:22;99820.94;;;22.30;56.53
79362;BME280;68830;47.566;19.012;2023-05-29T15:58:24;99817.19;;;22.31;55.42
79362;BME280;68830;47.566;19.012;2023-05-29T16:01:28;99837.00;;;22.25;56.40